createdAt,value
2022-11-20T00:01:26.994Z,25.75
2022-11-20T00:03:56.226Z,23.98
2022-11-20T00:06:24.073Z,26.33
2022-11-20T00:08:51.194Z,26.80
2022-11-20T00:11:22.981Z,25.75
2022-11-20T00:13:52.499Z,25.73
2022-11-20T00:16:22.503Z,27.30
2022-11-20T00:18:49.462Z,28.52
2022-11-20T00:21:27.509Z,28.17
2022-11-20T00:23:56.855Z,27.45
2022-11-20T00:26:25.552Z,26.52
2022-11-20T00:28:54.227Z,26.05
2022-11-20T00:31:21.816Z,25.50
2022-11-20T00:33:49.118Z,27.55
2022-11-20T00:36:21.787Z,27.75
2022-11-20T00:38:55.602Z,27.73
2022-11-20T00:41:22.909Z,27.60
2022-11-20T00:43:50.117Z,26.80
2022-11-20T00:46:19.782Z,26.98
2022-11-20T00:48:47.030Z,27.90
2022-11-20T00:51:15.792Z,27.33
2022-11-20T00:53:42.848Z,28.20
2022-11-20T00:56:12.625Z,28.08
2022-11-20T00:58:41.104Z,30.05
2022-11-20T01:01:27.479Z,28.58
2022-11-20T01:03:59.060Z,27.23
2022-11-20T01:06:28.501Z,28.33
2022-11-20T01:08:57.419Z,28.02
2022-11-20T01:11:30.158Z,27.52
2022-11-20T01:13:58.134Z,30.08
2022-11-20T01:16:34.864Z,28.33
2022-11-20T01:19:04.872Z,29.13
2022-11-20T01:21:34.186Z,28.75
2022-11-20T01:24:01.344Z,28.40
2022-11-20T01:26:32.168Z,26.85
2022-11-20T01:28:59.453Z,30.35
2022-11-20T01:31:36.915Z,26.30
2022-11-20T01:34:06.864Z,27.33
2022-11-20T01:36:36.487Z,27.17
2022-11-20T01:39:06.668Z,26.75
2022-11-20T01:41:53.339Z,26.50
2022-11-20T01:44:44.408Z,27.17
2022-11-20T01:47:15.322Z,26.80
2022-11-20T01:49:47.614Z,27.10
2022-11-20T01:52:21.835Z,26.77
2022-11-20T01:55:04.667Z,25.63
2022-11-20T01:57:33.168Z,25.95
2022-11-20T02:00:06.571Z,24.15
2022-11-20T02:02:33.572Z,26.45
2022-11-20T02:05:11.534Z,26.42
2022-11-20T02:07:39.138Z,25.85
2022-11-20T02:10:05.988Z,24.90
2022-11-20T02:12:51.487Z,26.15
2022-11-20T02:15:18.284Z,27.17
2022-11-20T02:17:45.113Z,25.85
2022-11-20T02:20:12.876Z,28.10
2022-11-20T02:23:23.782Z,29.02
2022-11-20T02:25:51.867Z,26.95
2022-11-20T02:28:19.488Z,27.08
2022-11-20T02:30:46.218Z,29.27
2022-11-20T02:33:13.645Z,28.27
2022-11-20T02:35:43.568Z,26.58
2022-11-20T02:38:10.879Z,25.88
2022-11-20T02:40:37.565Z,26.58
2022-11-20T02:43:04.352Z,27.50
2022-11-20T02:45:31.357Z,27.50
2022-11-20T02:47:58.081Z,26.65
2022-11-20T02:50:24.946Z,25.77
2022-11-20T02:52:51.669Z,27.23
2022-11-20T02:55:18.489Z,25.50
2022-11-20T02:57:45.233Z,26.90
2022-11-20T03:00:12.661Z,27.05
2022-11-20T03:02:39.411Z,26.85
2022-11-20T03:05:06.315Z,27.35
2022-11-20T03:07:33.114Z,25.63
2022-11-20T03:09:59.881Z,25.77
2022-11-20T03:12:26.571Z,26.25
2022-11-20T03:14:53.557Z,26.77
2022-11-20T03:17:20.515Z,26.52
2022-11-20T03:19:47.290Z,26.60
2022-11-20T03:22:14.139Z,26.60
2022-11-20T03:24:40.818Z,27.67
2022-11-20T03:27:07.507Z,27.20
2022-11-20T03:29:35.619Z,28.90
2022-11-20T03:32:02.347Z,26.52
2022-11-20T03:34:29.139Z,28.38
2022-11-20T03:36:55.833Z,29.23
2022-11-20T03:39:22.747Z,30.25
2022-11-20T03:41:49.690Z,30.67
2022-11-20T03:44:16.378Z,30.27
2022-11-20T03:46:43.223Z,29.77
2022-11-20T03:49:09.973Z,28.02
2022-11-20T03:51:37.347Z,28.33
2022-11-20T03:54:06.693Z,28.90
2022-11-20T03:56:36.201Z,30.17
2022-11-20T03:59:03.264Z,27.83
2022-11-20T04:01:35.458Z,28.10
2022-11-20T04:04:02.741Z,29.15
2022-11-20T04:06:34.053Z,27.60
2022-11-20T04:09:01.086Z,28.00
2022-11-20T04:11:33.649Z,28.85
2022-11-20T04:14:03.695Z,29.83
2022-11-20T04:16:32.805Z,27.15
2022-11-20T04:19:01.079Z,29.05
2022-11-20T04:21:28.391Z,29.92
2022-11-20T04:23:55.628Z,29.58
2022-11-20T04:26:24.348Z,27.65
2022-11-20T04:28:51.098Z,28.17
2022-11-20T04:31:20.465Z,27.98
2022-11-20T04:33:47.259Z,28.33
2022-11-20T04:36:16.591Z,28.52
2022-11-20T04:38:43.650Z,28.70
2022-11-20T04:41:17.783Z,28.15
2022-11-20T04:43:49.540Z,27.13
2022-11-20T04:46:17.015Z,27.30
2022-11-20T04:48:43.828Z,29.30
2022-11-20T04:51:10.923Z,27.50
2022-11-20T04:53:37.680Z,27.83
2022-11-20T04:56:07.066Z,27.13
2022-11-20T04:58:34.728Z,28.83
2022-11-20T05:01:13.024Z,27.63
2022-11-20T05:03:42.457Z,29.50
2022-11-20T05:06:11.519Z,28.70
2022-11-20T05:08:38.639Z,28.52
2022-11-20T05:11:08.440Z,28.83
2022-11-20T05:13:35.351Z,30.23
2022-11-20T05:16:08.132Z,28.80
2022-11-20T05:18:35.409Z,30.45
2022-11-20T05:21:02.504Z,28.67
2022-11-20T05:23:31.048Z,29.83
2022-11-20T05:25:59.388Z,30.45
2022-11-20T05:28:27.770Z,28.33
2022-11-20T05:30:54.497Z,30.45
2022-11-20T05:33:21.544Z,28.73
2022-11-20T05:35:49.449Z,30.63
2022-11-20T05:38:16.339Z,29.70
2022-11-20T05:40:43.164Z,29.58
2022-11-20T05:43:09.984Z,28.73
2022-11-20T05:45:36.787Z,29.95
2022-11-20T05:48:03.760Z,30.50
2022-11-20T05:50:30.569Z,30.65
2022-11-20T05:53:00.535Z,31.42
2022-11-20T05:55:28.060Z,29.40
2022-11-20T05:57:55.925Z,30.77
2022-11-20T06:00:23.217Z,31.25
2022-11-20T06:02:50.054Z,32.00
2022-11-20T06:05:16.965Z,30.42
2022-11-20T06:07:43.838Z,31.67
2022-11-20T06:10:11.225Z,31.63
2022-11-20T06:12:38.068Z,30.73
2022-11-20T06:15:06.176Z,30.75
2022-11-20T06:17:32.993Z,31.58
2022-11-20T06:19:59.739Z,29.48
2022-11-20T06:22:26.465Z,30.60
2022-11-20T06:24:53.210Z,29.13
2022-11-20T06:27:19.919Z,29.48
2022-11-20T06:29:46.659Z,30.88
2022-11-20T06:32:13.346Z,30.60
2022-11-20T06:34:40.052Z,30.75
2022-11-20T06:37:06.816Z,29.73
2022-11-20T06:39:33.555Z,30.65
2022-11-20T06:42:00.263Z,28.50
2022-11-20T06:44:27.346Z,27.17
2022-11-20T06:46:54.107Z,28.80
2022-11-20T06:49:21.170Z,28.20
2022-11-20T06:51:48.191Z,28.38
2022-11-20T06:54:14.892Z,27.52
2022-11-20T06:56:41.624Z,26.33
2022-11-20T06:59:08.952Z,27.25
2022-11-20T07:01:36.103Z,27.80
2022-11-20T07:04:04.092Z,27.65
2022-11-20T07:06:31.129Z,27.02
2022-11-20T07:08:58.179Z,26.40
2022-11-20T07:11:25.116Z,27.33
2022-11-20T07:13:51.899Z,27.27
2022-11-20T07:16:18.772Z,25.67
2022-11-20T07:18:50.133Z,26.67
2022-11-20T07:21:18.074Z,25.20
2022-11-20T07:23:44.779Z,26.30
2022-11-20T07:26:12.214Z,26.13
2022-11-20T07:28:39.452Z,25.60
2022-11-20T07:31:07.895Z,25.13
2022-11-20T07:33:34.763Z,26.10
2022-11-20T07:36:02.303Z,25.23
2022-11-20T07:38:29.256Z,25.73
2022-11-20T07:40:58.467Z,25.60
2022-11-20T07:43:26.262Z,27.17
2022-11-20T07:45:53.154Z,25.77
2022-11-20T07:48:19.931Z,25.88
2022-11-20T07:50:46.685Z,24.88
2022-11-20T07:53:14.771Z,27.40
2022-11-20T07:55:41.514Z,25.02
2022-11-20T07:58:08.255Z,25.23
2022-11-20T08:00:35.083Z,23.55
2022-11-20T08:03:05.385Z,25.80
2022-11-20T08:05:32.215Z,26.05
2022-11-20T08:07:59.030Z,25.58
2022-11-20T08:10:26.297Z,25.95
2022-11-20T08:13:12.725Z,24.83
2022-11-20T08:15:40.914Z,26.05
2022-11-20T08:20:58.428Z,26.55
2022-11-20T08:23:25.196Z,26.83
2022-11-20T08:25:52.299Z,24.85
2022-11-20T08:28:21.850Z,26.10
2022-11-20T08:30:49.858Z,26.35
2022-11-20T08:33:18.308Z,27.13
2022-11-20T08:35:45.169Z,26.80
2022-11-20T08:38:11.877Z,28.20
2022-11-20T08:40:38.584Z,26.73
2022-11-20T08:43:05.397Z,25.77
2022-11-20T08:45:34.682Z,26.88
2022-11-20T08:48:03.482Z,27.25
2022-11-20T08:50:33.021Z,27.88
2022-11-20T08:53:05.046Z,28.48
2022-11-20T08:55:32.189Z,27.30
2022-11-20T08:57:59.015Z,26.63
2022-11-20T09:00:25.764Z,26.27
2022-11-20T09:02:53.242Z,26.42
2022-11-20T09:05:20.027Z,26.50
2022-11-20T09:07:46.762Z,27.60
2022-11-20T09:10:29.066Z,27.50
2022-11-20T09:12:56.484Z,26.08
2022-11-20T09:15:24.123Z,26.25
2022-11-20T09:17:59.250Z,28.10
2022-11-20T09:20:27.174Z,26.23
2022-11-20T09:22:53.993Z,28.63
2022-11-20T09:25:20.774Z,27.40
2022-11-20T09:27:47.948Z,27.45
2022-11-20T09:30:15.960Z,27.45
2022-11-20T09:32:43.869Z,28.65
2022-11-20T09:35:11.467Z,27.70
2022-11-20T09:37:38.496Z,25.17
2022-11-20T09:40:05.780Z,24.77
2022-11-20T09:42:55.904Z,25.20
2022-11-20T09:45:45.274Z,25.33
2022-11-20T09:48:38.436Z,24.10
2022-11-20T09:51:32.745Z,25.00
2022-11-20T09:54:10.291Z,22.98
2022-11-20T09:56:41.128Z,24.70
2022-11-20T09:59:15.310Z,25.92
2022-11-20T10:01:44.112Z,25.30
2022-11-20T10:04:21.841Z,22.58
2022-11-20T10:07:30.881Z,24.23
2022-11-20T10:09:55.738Z,20.70
2022-11-20T10:12:56.788Z,20.65
2022-11-20T10:15:32.930Z,21.50
2022-11-20T10:18:19.569Z,20.50
2022-11-20T10:21:04.327Z,21.15
2022-11-20T10:23:49.857Z,21.40
2022-11-20T10:26:44.036Z,19.83
2022-11-20T10:29:17.023Z,21.75
2022-11-20T10:34:23.209Z,20.70
2022-11-20T10:37:10.664Z,19.95
2022-11-20T10:39:56.739Z,19.40
2022-11-20T10:42:45.178Z,20.40
2022-11-20T10:45:27.864Z,20.02
2022-11-20T10:48:11.688Z,21.15
2022-11-20T10:50:47.739Z,20.95
2022-11-20T10:53:29.289Z,19.45
2022-11-20T10:56:08.648Z,19.08
2022-11-20T10:59:13.328Z,19.98
2022-11-20T11:01:43.787Z,19.80
2022-11-20T11:04:27.681Z,20.40
2022-11-20T11:06:59.771Z,19.63
2022-11-20T11:09:35.132Z,19.23
2022-11-20T11:12:06.955Z,18.35
2022-11-20T11:14:43.931Z,19.83
2022-11-20T11:17:21.656Z,19.70
2022-11-20T11:20:18.506Z,19.17
2022-11-20T11:22:57.135Z,19.88
2022-11-20T11:25:36.528Z,19.58
2022-11-20T11:28:18.765Z,19.00
2022-11-20T11:30:46.270Z,19.60
2022-11-20T11:33:21.269Z,19.38
2022-11-20T11:35:53.757Z,19.63
2022-11-20T11:38:28.119Z,20.23
2022-11-20T11:40:57.410Z,18.75
2022-11-20T11:43:50.752Z,19.88
2022-11-20T11:46:30.280Z,19.87
2022-11-20T11:49:21.228Z,19.45
2022-11-20T11:52:00.648Z,22.13
2022-11-20T11:54:27.281Z,22.48
2022-11-20T11:56:54.677Z,23.60
2022-11-20T11:59:42.015Z,22.33
2022-11-20T12:02:26.157Z,23.73
2022-11-20T12:05:01.445Z,24.63
2022-11-20T12:07:49.561Z,24.08
2022-11-20T12:10:30.508Z,21.88
2022-11-20T12:13:05.150Z,22.55
2022-11-20T12:15:34.970Z,23.88
2022-11-20T12:18:02.296Z,22.67
2022-11-20T12:20:40.178Z,21.73
2022-11-20T12:23:12.614Z,21.58
2022-11-20T12:25:44.094Z,20.75
2022-11-20T12:28:25.727Z,21.33
2022-11-20T12:31:17.536Z,20.95
2022-11-20T12:33:50.091Z,20.25
2022-11-20T12:36:35.309Z,21.58
2022-11-20T12:39:20.856Z,20.20
2022-11-20T12:43:01.003Z,21.08
2022-11-20T12:45:30.575Z,21.65
2022-11-20T12:48:30.289Z,22.25
2022-11-20T12:51:34.753Z,20.98
2022-11-20T12:54:23.064Z,20.65
2022-11-20T12:57:12.579Z,27.10
2022-11-20T12:59:54.205Z,22.02
2022-11-20T13:02:58.464Z,19.83
2022-11-20T13:05:49.220Z,19.92
2022-11-20T13:08:33.904Z,21.33
2022-11-20T13:11:22.586Z,22.25
2022-11-20T13:14:13.879Z,22.15
2022-11-20T13:16:43.657Z,21.40
2022-11-20T13:19:14.038Z,20.38
2022-11-20T13:21:47.467Z,21.02
2022-11-20T13:24:20.521Z,19.98
2022-11-20T13:26:48.148Z,20.60
2022-11-20T13:29:19.627Z,20.00
2022-11-20T13:31:48.313Z,19.50
2022-11-20T13:34:26.802Z,19.15
2022-11-20T13:36:58.640Z,20.27
2022-11-20T13:39:34.601Z,20.30
2022-11-20T13:42:26.257Z,18.92
2022-11-20T13:44:56.218Z,18.42
2022-11-20T13:47:26.915Z,18.67
2022-11-20T13:49:55.693Z,19.35
2022-11-20T13:52:48.387Z,18.20
2022-11-20T13:55:39.025Z,19.15
2022-11-20T13:58:32.880Z,16.58
2022-11-20T14:01:08.954Z,17.63
2022-11-20T14:04:05.637Z,19.40
2022-11-20T14:06:25.884Z,17.50
2022-11-20T14:08:52.680Z,18.10
2022-11-20T14:11:25.372Z,19.42
2022-11-20T14:14:14.528Z,18.70
2022-11-20T14:16:41.254Z,17.48
2022-11-20T14:19:22.882Z,17.98
2022-11-20T14:22:19.908Z,17.98
2022-11-20T14:24:48.385Z,17.02
2022-11-20T14:27:20.780Z,17.58
2022-11-20T14:29:50.121Z,17.58
2022-11-20T14:32:20.112Z,16.27
2022-11-20T14:34:50.290Z,17.33
2022-11-20T14:37:24.268Z,17.58
2022-11-20T14:39:53.915Z,17.75
2022-11-20T14:42:23.641Z,17.73
2022-11-20T14:44:51.969Z,16.83
2022-11-20T14:47:22.883Z,17.58
2022-11-20T14:49:51.276Z,16.70
2022-11-20T14:52:20.772Z,17.13
2022-11-20T14:54:48.326Z,14.82
2022-11-20T14:57:30.275Z,17.30
2022-11-20T15:00:20.378Z,15.23
2022-11-20T15:02:49.221Z,14.30
2022-11-20T15:05:17.772Z,14.98
2022-11-20T15:07:49.035Z,13.82
2022-11-20T15:10:27.503Z,12.63
2022-11-20T15:13:12.398Z,11.23
2022-11-20T15:15:45.683Z,11.02
2022-11-20T15:18:14.800Z,11.45
2022-11-20T15:20:42.991Z,12.50
2022-11-20T15:23:14.762Z,12.10
2022-11-20T15:25:42.606Z,11.40
2022-11-20T15:28:21.838Z,11.02
2022-11-20T15:30:50.026Z,8.98
2022-11-20T15:33:18.131Z,7.57
2022-11-20T15:35:45.925Z,6.32
2022-11-20T15:38:12.653Z,6.38
2022-11-20T15:40:39.562Z,5.43
2022-11-20T15:43:12.873Z,4.65
2022-11-20T15:45:46.333Z,4.47
2022-11-20T15:48:17.299Z,5.25
2022-11-20T15:51:02.343Z,4.10
2022-11-20T15:53:29.076Z,4.15
2022-11-20T15:55:55.883Z,4.85
2022-11-20T15:58:24.572Z,4.00
2022-11-20T16:00:51.582Z,3.92
2022-11-20T16:03:19.062Z,4.93
2022-11-20T16:05:46.030Z,4.78
2022-11-20T16:08:12.845Z,5.43
2022-11-20T16:10:40.225Z,5.88
2022-11-20T16:13:31.739Z,6.57
2022-11-20T16:16:00.817Z,9.23
2022-11-20T16:18:27.629Z,11.00
2022-11-20T16:20:55.843Z,10.55
2022-11-20T16:23:23.091Z,8.55
2022-11-20T16:25:50.566Z,8.75
2022-11-20T16:28:19.274Z,9.35
2022-11-20T16:30:46.786Z,11.27
2022-11-20T16:33:18.300Z,11.32
2022-11-20T16:35:45.137Z,10.75
2022-11-20T16:38:11.884Z,11.00
2022-11-20T16:40:38.671Z,12.48
2022-11-20T16:43:14.614Z,12.85
2022-11-20T16:45:45.736Z,11.02
2022-11-20T16:48:14.593Z,10.90
2022-11-20T16:50:48.115Z,9.43
2022-11-20T16:53:15.036Z,7.88
2022-11-20T16:55:41.763Z,9.93
2022-11-20T16:58:09.280Z,6.90
2022-11-20T17:00:40.608Z,7.53
2022-11-20T17:03:07.865Z,7.68
2022-11-20T17:05:35.467Z,8.30
2022-11-20T17:08:02.418Z,8.77
2022-11-20T17:10:29.263Z,9.38
2022-11-20T17:12:56.019Z,8.98
2022-11-20T17:15:22.913Z,8.52
2022-11-20T17:17:50.736Z,12.07
2022-11-20T17:20:17.527Z,9.38
2022-11-20T17:22:44.340Z,14.30
2022-11-20T17:25:11.140Z,14.13
2022-11-20T17:27:37.848Z,12.93
2022-11-20T17:30:04.892Z,10.45
2022-11-20T17:32:31.637Z,15.75
2022-11-20T17:34:58.885Z,9.50
2022-11-20T17:37:25.620Z,15.45
2022-11-20T17:39:52.384Z,12.35
2022-11-20T17:42:29.424Z,8.90
2022-11-20T17:44:58.710Z,10.52
2022-11-20T17:47:25.931Z,7.53
2022-11-20T17:49:53.604Z,6.55
2022-11-20T17:52:20.504Z,12.10
2022-11-20T17:54:47.332Z,6.43
2022-11-20T17:57:32.624Z,5.80
2022-11-20T17:59:59.368Z,5.30
2022-11-20T18:02:26.113Z,5.32
2022-11-20T18:04:52.852Z,4.05
2022-11-20T18:07:19.744Z,5.60
2022-11-20T18:09:46.494Z,6.35
2022-11-20T18:12:13.268Z,4.60
2022-11-20T18:14:40.021Z,4.75
2022-11-20T18:17:09.746Z,4.97
2022-11-20T18:20:07.218Z,4.03
2022-11-20T18:22:34.572Z,2.53
2022-11-20T18:25:02.413Z,2.25
2022-11-20T18:27:29.114Z,2.45
2022-11-20T18:29:55.841Z,2.83
2022-11-20T18:32:22.966Z,2.15
2022-11-20T18:34:50.755Z,1.80
2022-11-20T18:37:17.592Z,1.55
2022-11-20T18:39:44.791Z,1.50
2022-11-20T18:42:34.790Z,1.60
2022-11-20T18:45:04.233Z,1.25
2022-11-20T18:47:34.113Z,1.75
2022-11-20T18:50:02.097Z,1.60
2022-11-20T18:52:34.562Z,1.60
2022-11-20T18:55:05.679Z,1.75
2022-11-20T18:57:33.036Z,2.05
2022-11-20T19:00:03.615Z,2.40
2022-11-20T19:02:40.950Z,2.58
2022-11-20T19:05:10.475Z,2.55
2022-11-20T19:07:37.282Z,2.83
2022-11-20T19:10:05.163Z,2.80
2022-11-20T19:12:32.053Z,4.05
2022-11-20T19:14:58.851Z,3.38
2022-11-20T19:17:25.560Z,3.38
2022-11-20T19:19:54.832Z,3.33
2022-11-20T19:22:22.303Z,3.45
2022-11-20T19:24:49.480Z,3.78
2022-11-20T19:27:16.373Z,3.63
2022-11-20T19:29:43.344Z,4.07
2022-11-20T19:32:10.121Z,5.15
2022-11-20T19:34:36.928Z,4.43
2022-11-20T19:37:03.812Z,5.47
2022-11-20T19:39:30.528Z,4.38
2022-11-20T19:41:57.288Z,4.00
2022-11-20T19:44:24.004Z,3.92
2022-11-20T19:46:50.973Z,4.05
2022-11-20T19:49:17.958Z,4.68
2022-11-20T19:51:49.659Z,4.68
2022-11-20T19:54:17.627Z,3.75
2022-11-20T19:56:45.509Z,3.88
2022-11-20T19:59:13.047Z,5.20
2022-11-20T20:01:40.054Z,3.78
2022-11-20T20:04:07.174Z,4.20
2022-11-20T20:06:36.089Z,3.95
2022-11-20T20:09:13.270Z,3.95
2022-11-20T20:11:40.835Z,4.40
2022-11-20T20:14:10.795Z,3.83
2022-11-20T20:16:37.715Z,4.15
2022-11-20T20:19:05.395Z,3.05
2022-11-20T20:21:34.051Z,4.07
2022-11-20T20:24:01.471Z,3.28
2022-11-20T20:26:31.068Z,3.30
2022-11-20T20:28:58.040Z,3.30
2022-11-20T20:31:26.835Z,3.60
2022-11-20T20:33:54.240Z,3.65
2022-11-20T20:36:22.898Z,3.97
2022-11-20T20:38:56.420Z,3.33
2022-11-20T20:41:24.934Z,3.30
2022-11-20T20:44:11.266Z,3.63
2022-11-20T20:46:38.145Z,3.05
2022-11-20T20:49:05.508Z,2.83
2022-11-20T20:51:32.278Z,3.10
2022-11-20T20:53:59.474Z,3.13
2022-11-20T20:56:26.332Z,3.05
2022-11-20T20:58:53.129Z,3.22
2022-11-20T21:01:20.818Z,3.08
2022-11-20T21:03:47.607Z,3.53
2022-11-20T21:06:14.770Z,3.05
2022-11-20T21:08:44.122Z,3.05
2022-11-20T21:11:16.728Z,2.80
2022-11-20T21:13:44.957Z,2.40
2022-11-20T21:16:13.525Z,2.58
2022-11-20T21:18:40.545Z,3.35
2022-11-20T21:21:28.134Z,3.65
2022-11-20T21:23:54.919Z,3.72
2022-11-20T21:26:22.116Z,2.85
2022-11-20T21:28:52.051Z,2.65
2022-11-20T21:31:22.328Z,2.65
2022-11-20T21:33:50.955Z,3.20
2022-11-20T21:36:19.777Z,2.80
2022-11-20T21:38:47.031Z,2.78
2022-11-20T21:41:14.929Z,2.83
2022-11-20T21:43:44.628Z,3.42
2022-11-20T21:46:16.743Z,3.65
2022-11-20T21:48:45.772Z,3.50
2022-11-20T21:51:17.995Z,2.58
2022-11-20T21:53:46.328Z,3.70
2022-11-20T21:56:19.070Z,3.10
2022-11-20T21:58:48.001Z,2.90
2022-11-20T22:01:28.866Z,4.10
2022-11-20T22:04:01.456Z,2.97
2022-11-20T22:06:33.113Z,3.47
2022-11-20T22:09:01.254Z,3.13
2022-11-20T22:11:28.296Z,3.03
2022-11-20T22:14:13.647Z,3.17
2022-11-20T22:16:40.427Z,2.70
2022-11-20T22:19:07.335Z,3.78
2022-11-20T22:21:34.797Z,2.92
2022-11-20T22:24:01.969Z,3.40
2022-11-20T22:26:33.920Z,3.70
2022-11-20T22:29:04.256Z,4.10
2022-11-20T22:31:32.081Z,3.55
2022-11-20T22:34:02.067Z,3.78
2022-11-20T22:36:30.770Z,3.88
2022-11-20T22:38:58.226Z,3.38
2022-11-20T22:41:27.269Z,3.50
2022-11-20T22:43:58.655Z,3.85
2022-11-20T22:46:26.913Z,3.22
2022-11-20T22:48:58.790Z,4.38
2022-11-20T22:51:27.619Z,3.65
2022-11-20T22:53:54.852Z,3.33
2022-11-20T22:56:22.621Z,4.70
2022-11-20T22:58:51.845Z,4.18
2022-11-20T23:01:19.447Z,3.72
2022-11-20T23:03:48.350Z,4.53
2022-11-20T23:06:17.607Z,4.20
2022-11-20T23:08:44.798Z,3.65
2022-11-20T23:11:14.497Z,4.45
2022-11-20T23:13:43.838Z,4.25
2022-11-20T23:16:17.169Z,4.22
2022-11-20T23:18:44.771Z,3.53
2022-11-20T23:21:15.725Z,4.45
2022-11-20T23:23:43.879Z,4.47
2022-11-20T23:26:12.999Z,4.07
2022-11-20T23:28:40.702Z,4.95
2022-11-20T23:31:08.120Z,4.65
2022-11-20T23:33:42.877Z,4.60
2022-11-20T23:36:10.197Z,4.20
2022-11-20T23:38:37.315Z,3.85
2022-11-20T23:41:04.619Z,4.43
2022-11-20T23:43:31.731Z,5.35
2022-11-20T23:46:00.174Z,3.75
2022-11-20T23:48:32.095Z,5.03
2022-11-20T23:50:58.827Z,4.60
2022-11-20T23:53:25.869Z,3.63
2022-11-20T23:56:04.070Z,3.95
2022-11-20T23:58:33.845Z,4.38
